Flight Briefing for CPX109

Departure Arrival
Daniel K Inouye International Airport (PHNL)
Click to view FAA NOTAMS
Seattle-Tacoma International Airport (KSEA)
Click to view FAA NOTAMS
Departure Time Arrival Time
N/A N/A
Aircraft Distance
B747-400BCF 2329nm
Departure METAR Arrival METAR
PHNL 232353Z 16009KT 10SM FEW025 FEW039 SCT050 31/21 A3002 RMK AO2 SLP164 VCSH NE T03060206 10322 20267 58006 KSEA 232353Z VRB04KT 10SM FEW040 SCT250 24/13 A2990 RMK AO2 SLP129 T02440128 10250 20144 56021
Suggested Route
MKK4 APACK ZOULU ZEMOM A331 ZINNO A331 SEDAR LATAY HAWKZ7


View recent IFR Routes data
Notes



Charts and Procedures

Charts for PHNL
No chart available
Charts for KSEA
No chart available

Windy.com Weather Map